sensor_id;sensor_type;location;lat;lon;timestamp;pressure;altitude;pressure_sealevel;temperature;humidity
8705;BME280;4389;41.932;25.904;2023-05-12T00:00:56;100982.91;;;9.01;99.37
8705;BME280;4389;41.932;25.904;2023-05-12T00:03:25;100981.13;;;9.01;98.85
8705;BME280;4389;41.932;25.904;2023-05-12T00:05:52;100991.91;;;8.98;98.94
8705;BME280;4389;41.932;25.904;2023-05-12T00:08:18;100984.66;;;9.13;99.23
8705;BME280;4389;41.932;25.904;2023-05-12T00:10:45;100987.41;;;9.11;98.43
8705;BME280;4389;41.932;25.904;2023-05-12T00:13:12;100984.81;;;9.22;98.94
8705;BME280;4389;41.932;25.904;2023-05-12T00:15:40;100994.06;;;9.28;98.34
8705;BME280;4389;41.932;25.904;2023-05-12T00:18:07;100989.38;;;9.31;97.03
8705;BME280;4389;41.932;25.904;2023-05-12T00:20:37;100993.06;;;9.18;97.70
8705;BME280;4389;41.932;25.904;2023-05-12T00:23:04;100992.47;;;9.14;98.27
8705;BME280;4389;41.932;25.904;2023-05-12T00:25:30;100996.06;;;9.13;98.23
8705;BME280;4389;41.932;25.904;2023-05-12T00:27:57;100986.94;;;9.17;98.22
8705;BME280;4389;41.932;25.904;2023-05-12T00:30:24;100981.91;;;9.14;98.30
8705;BME280;4389;41.932;25.904;2023-05-12T00:32:51;100991.53;;;9.26;98.62
8705;BME280;4389;41.932;25.904;2023-05-12T00:35:18;100977.59;;;9.24;97.75
8705;BME280;4389;41.932;25.904;2023-05-12T00:37:46;100989.63;;;9.28;97.44
8705;BME280;4389;41.932;25.904;2023-05-12T00:40:13;100989.06;;;9.12;97.87
8705;BME280;4389;41.932;25.904;2023-05-12T00:42:40;100989.84;;;9.25;98.30
8705;BME280;4389;41.932;25.904;2023-05-12T00:45:07;100988.88;;;9.15;97.70
8705;BME280;4389;41.932;25.904;2023-05-12T00:47:34;100986.16;;;9.04;98.26
8705;BME280;4389;41.932;25.904;2023-05-12T00:50:02;100981.75;;;9.05;98.61
8705;BME280;4389;41.932;25.904;2023-05-12T00:52:29;100990.81;;;9.24;98.81
8705;BME280;4389;41.932;25.904;2023-05-12T00:54:59;100991.00;;;9.10;97.97
8705;BME280;4389;41.932;25.904;2023-05-12T00:57:26;100988.94;;;9.03;98.33
8705;BME280;4389;41.932;25.904;2023-05-12T00:59:53;100984.28;;;9.06;98.85
8705;BME280;4389;41.932;25.904;2023-05-12T01:02:20;100987.47;;;8.99;98.86
8705;BME280;4389;41.932;25.904;2023-05-12T01:04:48;100992.13;;;8.95;99.07
8705;BME280;4389;41.932;25.904;2023-05-12T01:07:17;100993.53;;;8.88;99.36
8705;BME280;4389;41.932;25.904;2023-05-12T01:09:45;100995.50;;;8.97;99.54
8705;BME280;4389;41.932;25.904;2023-05-12T01:12:14;100992.38;;;8.93;99.25
8705;BME280;4389;41.932;25.904;2023-05-12T01:14:41;100994.50;;;8.88;99.24
8705;BME280;4389;41.932;25.904;2023-05-12T01:17:10;100997.84;;;8.89;99.21
8705;BME280;4389;41.932;25.904;2023-05-12T01:19:41;100993.63;;;8.87;98.97
8705;BME280;4389;41.932;25.904;2023-05-12T01:22:09;100991.13;;;8.86;98.93
8705;BME280;4389;41.932;25.904;2023-05-12T01:24:49;100991.97;;;8.86;99.33
8705;BME280;4389;41.932;25.904;2023-05-12T01:27:19;100988.50;;;8.86;99.13
8705;BME280;4389;41.932;25.904;2023-05-12T01:29:47;100981.03;;;8.80;99.24
8705;BME280;4389;41.932;25.904;2023-05-12T01:32:15;100975.75;;;8.80;99.07
8705;BME280;4389;41.932;25.904;2023-05-12T01:34:42;100988.22;;;8.78;99.36
8705;BME280;4389;41.932;25.904;2023-05-12T01:37:10;100980.44;;;8.87;99.04
8705;BME280;4389;41.932;25.904;2023-05-12T01:39:37;100981.81;;;8.93;98.38
8705;BME280;4389;41.932;25.904;2023-05-12T01:42:05;100982.25;;;8.87;98.20
8705;BME280;4389;41.932;25.904;2023-05-12T01:44:33;100977.59;;;8.90;98.15
8705;BME280;4389;41.932;25.904;2023-05-12T01:47:00;100978.78;;;8.86;98.34
8705;BME280;4389;41.932;25.904;2023-05-12T01:49:27;100974.78;;;8.81;98.00
8705;BME280;4389;41.932;25.904;2023-05-12T01:51:54;100969.97;;;8.75;98.11
8705;BME280;4389;41.932;25.904;2023-05-12T01:54:21;100973.56;;;8.74;98.42
8705;BME280;4389;41.932;25.904;2023-05-12T01:56:48;100981.91;;;8.68;98.31
8705;BME280;4389;41.932;25.904;2023-05-12T01:59:14;100981.13;;;8.55;98.22
8705;BME280;4389;41.932;25.904;2023-05-12T02:01:43;100977.03;;;8.51;99.37
8705;BME280;4389;41.932;25.904;2023-05-12T02:04:10;100980.63;;;8.50;99.29
8705;BME280;4389;41.932;25.904;2023-05-12T02:06:37;100984.72;;;8.54;99.18
8705;BME280;4389;41.932;25.904;2023-05-12T02:09:03;100977.56;;;8.43;99.58
8705;BME280;4389;41.932;25.904;2023-05-12T02:11:30;100984.31;;;8.47;99.73
8705;BME280;4389;41.932;25.904;2023-05-12T02:13:57;100987.06;;;8.46;99.81
8705;BME280;4389;41.932;25.904;2023-05-12T02:16:24;100994.25;;;8.44;99.33
8705;BME280;4389;41.932;25.904;2023-05-12T02:18:52;101006.66;;;8.42;99.69
8705;BME280;4389;41.932;25.904;2023-05-12T02:21:18;101000.06;;;8.36;99.71
8705;BME280;4389;41.932;25.904;2023-05-12T02:23:45;101005.22;;;8.38;99.71
8705;BME280;4389;41.932;25.904;2023-05-12T02:26:12;100998.28;;;8.37;99.95
8705;BME280;4389;41.932;25.904;2023-05-12T02:28:39;101001.19;;;8.45;99.82
8705;BME280;4389;41.932;25.904;2023-05-12T02:31:06;100992.13;;;8.36;99.71
8705;BME280;4389;41.932;25.904;2023-05-12T02:33:33;100987.72;;;8.37;99.84
8705;BME280;4389;41.932;25.904;2023-05-12T02:36:01;100989.59;;;8.35;100.00
8705;BME280;4389;41.932;25.904;2023-05-12T02:38:28;100999.72;;;8.41;99.99
8705;BME280;4389;41.932;25.904;2023-05-12T02:40:55;100996.59;;;8.36;100.00
8705;BME280;4389;41.932;25.904;2023-05-12T02:43:21;100994.25;;;8.44;100.00
8705;BME280;4389;41.932;25.904;2023-05-12T02:45:48;100999.91;;;8.50;99.98
8705;BME280;4389;41.932;25.904;2023-05-12T02:48:16;101000.44;;;8.55;99.55
8705;BME280;4389;41.932;25.904;2023-05-12T02:50:43;101000.00;;;8.61;99.58
8705;BME280;4389;41.932;25.904;2023-05-12T02:53:11;101001.72;;;8.73;98.80
8705;BME280;4389;41.932;25.904;2023-05-12T02:55:38;101006.19;;;8.73;98.18
8705;BME280;4389;41.932;25.904;2023-05-12T02:58:05;101011.88;;;8.67;98.30
8705;BME280;4389;41.932;25.904;2023-05-12T03:00:31;101011.66;;;8.70;98.52
8705;BME280;4389;41.932;25.904;2023-05-12T03:02:58;101012.28;;;8.73;98.19
8705;BME280;4389;41.932;25.904;2023-05-12T03:05:25;101007.56;;;8.66;98.05
8705;BME280;4389;41.932;25.904;2023-05-12T03:07:52;101010.81;;;8.69;98.58
8705;BME280;4389;41.932;25.904;2023-05-12T03:10:20;101015.03;;;8.72;98.41
8705;BME280;4389;41.932;25.904;2023-05-12T03:12:47;101010.53;;;8.61;98.33
8705;BME280;4389;41.932;25.904;2023-05-12T03:15:13;101014.25;;;8.59;98.79
8705;BME280;4389;41.932;25.904;2023-05-12T03:17:41;101018.78;;;8.57;99.24
8705;BME280;4389;41.932;25.904;2023-05-12T03:20:08;101019.50;;;8.59;98.98
8705;BME280;4389;41.932;25.904;2023-05-12T03:22:34;101024.56;;;8.62;99.06
8705;BME280;4389;41.932;25.904;2023-05-12T03:25:01;101011.88;;;8.67;99.15
8705;BME280;4389;41.932;25.904;2023-05-12T03:27:31;101015.25;;;8.69;98.71
8705;BME280;4389;41.932;25.904;2023-05-12T03:29:58;101020.94;;;8.75;98.81
8705;BME280;4389;41.932;25.904;2023-05-12T03:32:26;101019.41;;;8.83;98.64
8705;BME280;4389;41.932;25.904;2023-05-12T03:34:53;101017.09;;;8.79;98.13
8705;BME280;4389;41.932;25.904;2023-05-12T03:37:20;101033.78;;;8.80;97.97
8705;BME280;4389;41.932;25.904;2023-05-12T03:39:47;101029.06;;;8.72;98.02
8705;BME280;4389;41.932;25.904;2023-05-12T03:42:14;101032.31;;;8.76;97.72
8705;BME280;4389;41.932;25.904;2023-05-12T03:44:42;101029.25;;;8.82;98.07
8705;BME280;4389;41.932;25.904;2023-05-12T03:47:09;101032.41;;;8.87;97.72
8705;BME280;4389;41.932;25.904;2023-05-12T03:49:37;101044.09;;;8.95;97.36
8705;BME280;4389;41.932;25.904;2023-05-12T03:52:04;101041.09;;;8.99;96.98
8705;BME280;4389;41.932;25.904;2023-05-12T03:54:31;101049.50;;;9.04;96.19
8705;BME280;4389;41.932;25.904;2023-05-12T03:56:57;101043.09;;;9.19;96.20
8705;BME280;4389;41.932;25.904;2023-05-12T03:59:24;101054.78;;;9.28;95.77
8705;BME280;4389;41.932;25.904;2023-05-12T04:01:52;101047.41;;;9.44;95.55
8705;BME280;4389;41.932;25.904;2023-05-12T04:04:19;101043.13;;;9.54;94.42
8705;BME280;4389;41.932;25.904;2023-05-12T04:06:46;101057.06;;;9.56;94.58
8705;BME280;4389;41.932;25.904;2023-05-12T04:09:13;101057.22;;;9.65;94.06
8705;BME280;4389;41.932;25.904;2023-05-12T04:11:40;101058.53;;;9.60;93.73
8705;BME280;4389;41.932;25.904;2023-05-12T04:14:07;101059.16;;;9.74;93.83
8705;BME280;4389;41.932;25.904;2023-05-12T04:16:34;101062.50;;;9.76;93.37
8705;BME280;4389;41.932;25.904;2023-05-12T04:19:02;101056.53;;;9.96;92.56
8705;BME280;4389;41.932;25.904;2023-05-12T04:21:29;101070.56;;;10.20;91.77
8705;BME280;4389;41.932;25.904;2023-05-12T04:23:57;101063.59;;;10.30;90.81
8705;BME280;4389;41.932;25.904;2023-05-12T04:26:24;101067.44;;;10.59;89.80
8705;BME280;4389;41.932;25.904;2023-05-12T04:28:51;101068.63;;;10.66;89.28
8705;BME280;4389;41.932;25.904;2023-05-12T04:31:19;101073.84;;;11.10;88.85
8705;BME280;4389;41.932;25.904;2023-05-12T04:33:45;101062.25;;;11.54;85.84
8705;BME280;4389;41.932;25.904;2023-05-12T04:36:14;101065.06;;;11.93;84.66
8705;BME280;4389;41.932;25.904;2023-05-12T04:38:40;101058.44;;;12.08;81.99
8705;BME280;4389;41.932;25.904;2023-05-12T04:41:07;101066.16;;;12.11;81.89
8705;BME280;4389;41.932;25.904;2023-05-12T04:43:34;101062.94;;;12.38;81.53
8705;BME280;4389;41.932;25.904;2023-05-12T04:46:01;101066.19;;;12.21;81.23
8705;BME280;4389;41.932;25.904;2023-05-12T04:48:28;101067.84;;;12.42;80.45
8705;BME280;4389;41.932;25.904;2023-05-12T04:50:57;101062.19;;;12.56;80.67
8705;BME280;4389;41.932;25.904;2023-05-12T04:53:25;101060.78;;;12.62;79.95
8705;BME280;4389;41.932;25.904;2023-05-12T04:55:52;101065.44;;;12.09;80.78
8705;BME280;4389;41.932;25.904;2023-05-12T04:58:21;101063.94;;;12.46;81.65
8705;BME280;4389;41.932;25.904;2023-05-12T05:00:47;101062.38;;;12.34;81.15
8705;BME280;4389;41.932;25.904;2023-05-12T05:03:14;101059.78;;;12.23;81.50
8705;BME280;4389;41.932;25.904;2023-05-12T05:05:41;101065.44;;;12.09;81.50
8705;BME280;4389;41.932;25.904;2023-05-12T05:08:08;101068.66;;;12.33;80.77
8705;BME280;4389;41.932;25.904;2023-05-12T05:10:36;101078.91;;;11.97;80.79
8705;BME280;4389;41.932;25.904;2023-05-12T05:13:03;101071.00;;;11.65;81.74
8705;BME280;4389;41.932;25.904;2023-05-12T05:15:30;101071.84;;;11.86;82.36
8705;BME280;4389;41.932;25.904;2023-05-12T05:17:57;101068.53;;;12.14;81.59
8705;BME280;4389;41.932;25.904;2023-05-12T05:20:24;101073.00;;;12.14;81.87
8705;BME280;4389;41.932;25.904;2023-05-12T05:22:52;101080.41;;;12.40;81.32
8705;BME280;4389;41.932;25.904;2023-05-12T05:25:19;101080.22;;;12.62;80.19
8705;BME280;4389;41.932;25.904;2023-05-12T05:27:47;101073.06;;;12.23;80.15
8705;BME280;4389;41.932;25.904;2023-05-12T05:30:14;101083.03;;;12.10;80.44
8705;BME280;4389;41.932;25.904;2023-05-12T05:32:41;101076.56;;;12.03;81.54
8705;BME280;4389;41.932;25.904;2023-05-12T05:35:08;101088.81;;;12.45;80.81
8705;BME280;4389;41.932;25.904;2023-05-12T05:37:35;101074.31;;;12.49;79.03
8705;BME280;4389;41.932;25.904;2023-05-12T05:40:02;101074.03;;;12.52;79.00
8705;BME280;4389;41.932;25.904;2023-05-12T05:42:30;101073.72;;;12.46;78.40
8705;BME280;4389;41.932;25.904;2023-05-12T05:44:58;101069.84;;;12.59;77.46
8705;BME280;4389;41.932;25.904;2023-05-12T05:47:24;101075.25;;;12.18;78.49
8705;BME280;4389;41.932;25.904;2023-05-12T05:49:52;101068.50;;;12.35;78.66
8705;BME280;4389;41.932;25.904;2023-05-12T05:52:19;101062.88;;;12.58;78.69
8705;BME280;4389;41.932;25.904;2023-05-12T05:54:47;101068.06;;;12.60;78.55
8705;BME280;4389;41.932;25.904;2023-05-12T05:57:14;101070.19;;;12.66;77.70
8705;BME280;4389;41.932;25.904;2023-05-12T05:59:41;101077.03;;;12.38;78.05
8705;BME280;4389;41.932;25.904;2023-05-12T06:02:09;101071.03;;;12.76;78.55
8705;BME280;4389;41.932;25.904;2023-05-12T06:04:36;101072.56;;;13.08;77.25
8705;BME280;4389;41.932;25.904;2023-05-12T06:07:03;101069.22;;;13.25;76.60
8705;BME280;4389;41.932;25.904;2023-05-12T06:09:30;101069.22;;;13.16;77.18
8705;BME280;4389;41.932;25.904;2023-05-12T06:11:57;101067.28;;;13.37;76.47
8705;BME280;4389;41.932;25.904;2023-05-12T06:14:24;101065.84;;;13.80;74.84
8705;BME280;4389;41.932;25.904;2023-05-12T06:17:12;101071.03;;;13.53;75.49
8705;BME280;4389;41.932;25.904;2023-05-12T06:19:39;101072.44;;;13.38;76.61
8705;BME280;4389;41.932;25.904;2023-05-12T06:22:06;101067.00;;;13.68;75.94
8705;BME280;4389;41.932;25.904;2023-05-12T06:24:33;101061.09;;;13.74;76.17
8705;BME280;4389;41.932;25.904;2023-05-12T06:27:00;101069.41;;;14.26;73.82
8705;BME280;4389;41.932;25.904;2023-05-12T06:29:26;101076.94;;;14.40;73.21
8705;BME280;4389;41.932;25.904;2023-05-12T06:31:53;101079.06;;;14.37;72.80
8705;BME280;4389;41.932;25.904;2023-05-12T06:34:22;101077.78;;;14.41;71.94
8705;BME280;4389;41.932;25.904;2023-05-12T06:36:48;101078.88;;;14.48;72.33
8705;BME280;4389;41.932;25.904;2023-05-12T06:39:15;101076.09;;;14.49;70.93
8705;BME280;4389;41.932;25.904;2023-05-12T06:41:42;101068.28;;;14.29;71.31
8705;BME280;4389;41.932;25.904;2023-05-12T06:44:09;101074.63;;;14.18;72.11
8705;BME280;4389;41.932;25.904;2023-05-12T06:46:37;101072.13;;;14.07;72.84
8705;BME280;4389;41.932;25.904;2023-05-12T06:49:04;101073.06;;;14.25;72.08
8705;BME280;4389;41.932;25.904;2023-05-12T06:51:32;101069.69;;;14.33;72.06
8705;BME280;4389;41.932;25.904;2023-05-12T06:53:59;101076.78;;;14.51;72.01
8705;BME280;4389;41.932;25.904;2023-05-12T06:56:26;101068.59;;;14.26;72.78
8705;BME280;4389;41.932;25.904;2023-05-12T06:58:54;101071.00;;;14.56;71.72
8705;BME280;4389;41.932;25.904;2023-05-12T07:01:25;101072.59;;;14.76;71.91
8705;BME280;4389;41.932;25.904;2023-05-12T07:03:52;101080.00;;;14.82;70.40
8705;BME280;4389;41.932;25.904;2023-05-12T07:06:19;101075.84;;;14.97;70.32
8705;BME280;4389;41.932;25.904;2023-05-12T07:08:47;101072.78;;;14.92;69.73
8705;BME280;4389;41.932;25.904;2023-05-12T07:11:14;101065.88;;;14.72;71.41
8705;BME280;4389;41.932;25.904;2023-05-12T07:13:44;101065.59;;;14.75;71.09
8705;BME280;4389;41.932;25.904;2023-05-12T07:16:11;101060.34;;;15.10;71.08
8705;BME280;4389;41.932;25.904;2023-05-12T07:18:38;101060.63;;;15.07;70.16
8705;BME280;4389;41.932;25.904;2023-05-12T07:21:05;101061.22;;;15.01;71.16
8705;BME280;4389;41.932;25.904;2023-05-12T07:23:32;101069.28;;;15.09;70.12
8705;BME280;4389;41.932;25.904;2023-05-12T07:26:00;101056.28;;;15.06;70.73
8705;BME280;4389;41.932;25.904;2023-05-12T07:28:28;101060.19;;;15.29;70.68
8705;BME280;4389;41.932;25.904;2023-05-12T07:30:56;101061.84;;;15.30;69.65
8705;BME280;4389;41.932;25.904;2023-05-12T07:33:23;101067.50;;;15.27;69.94
8705;BME280;4389;41.932;25.904;2023-05-12T07:35:50;101069.59;;;15.33;69.31
8705;BME280;4389;41.932;25.904;2023-05-12T07:38:17;101062.06;;;15.46;69.20
8705;BME280;4389;41.932;25.904;2023-05-12T07:40:44;101059.81;;;15.59;67.43
8705;BME280;4389;41.932;25.904;2023-05-12T07:43:12;101067.22;;;15.65;67.79
8705;BME280;4389;41.932;25.904;2023-05-12T07:45:39;101069.75;;;15.49;67.56
8705;BME280;4389;41.932;25.904;2023-05-12T07:48:05;101070.22;;;15.44;67.02
8705;BME280;4389;41.932;25.904;2023-05-12T07:50:32;101059.75;;;15.51;66.75
8705;BME280;4389;41.932;25.904;2023-05-12T07:52:59;101056.63;;;15.55;66.24
8705;BME280;4389;41.932;25.904;2023-05-12T07:55:26;101057.34;;;15.57;67.34
8705;BME280;4389;41.932;25.904;2023-05-12T07:57:53;101053.31;;;15.79;65.95
8705;BME280;4389;41.932;25.904;2023-05-12T08:00:21;101055.75;;;15.90;65.20
8705;BME280;4389;41.932;25.904;2023-05-12T08:02:48;101058.16;;;16.01;65.69
8705;BME280;4389;41.932;25.904;2023-05-12T08:05:15;101063.97;;;16.22;63.93
8705;BME280;4389;41.932;25.904;2023-05-12T08:07:42;101053.41;;;16.63;61.98
8705;BME280;4389;41.932;25.904;2023-05-12T08:10:09;101059.56;;;16.64;61.94
8705;BME280;4389;41.932;25.904;2023-05-12T08:12:37;101062.06;;;17.15;60.38
8705;BME280;4389;41.932;25.904;2023-05-12T08:15:05;101060.16;;;17.49;57.20
8705;BME280;4389;41.932;25.904;2023-05-12T08:17:33;101063.69;;;17.73;57.61
8705;BME280;4389;41.932;25.904;2023-05-12T08:20:00;101067.38;;;17.64;54.62
8705;BME280;4389;41.932;25.904;2023-05-12T08:22:29;101057.50;;;17.57;54.19
8705;BME280;4389;41.932;25.904;2023-05-12T08:24:55;101064.50;;;17.50;54.12
8705;BME280;4389;41.932;25.904;2023-05-12T08:27:22;101056.50;;;17.66;55.97
8705;BME280;4389;41.932;25.904;2023-05-12T08:29:49;101058.84;;;17.45;56.91
8705;BME280;4389;41.932;25.904;2023-05-12T08:32:16;101070.66;;;17.26;56.66
8705;BME280;4389;41.932;25.904;2023-05-12T08:34:44;101062.41;;;17.12;58.66
8705;BME280;4389;41.932;25.904;2023-05-12T08:37:11;101064.06;;;17.05;58.75
8705;BME280;4389;41.932;25.904;2023-05-12T08:39:39;101071.53;;;17.43;57.59
8705;BME280;4389;41.932;25.904;2023-05-12T08:42:29;101066.22;;;17.59;57.21
8705;BME280;4389;41.932;25.904;2023-05-12T08:44:58;101069.06;;;17.57;57.42
8705;BME280;4389;41.932;25.904;2023-05-12T08:47:26;101066.53;;;17.72;56.95
8705;BME280;4389;41.932;25.904;2023-05-12T08:49:58;101066.56;;;17.80;54.92
8705;BME280;4389;41.932;25.904;2023-05-12T08:52:26;101068.53;;;17.54;55.63
8705;BME280;4389;41.932;25.904;2023-05-12T08:54:53;101060.34;;;17.71;55.49
8705;BME280;4389;41.932;25.904;2023-05-12T08:57:21;101063.53;;;17.67;56.44
8705;BME280;4389;41.932;25.904;2023-05-12T08:59:49;101055.84;;;17.88;54.75
8705;BME280;4389;41.932;25.904;2023-05-12T09:02:20;101056.00;;;17.86;55.13
8705;BME280;4389;41.932;25.904;2023-05-12T09:04:47;101049.44;;;18.13;54.61
8705;BME280;4389;41.932;25.904;2023-05-12T09:07:16;101050.28;;;18.13;53.42
8705;BME280;4389;41.932;25.904;2023-05-12T09:09:44;101041.22;;;18.14;53.66
8705;BME280;4389;41.932;25.904;2023-05-12T09:12:15;101042.59;;;18.02;53.42
8705;BME280;4389;41.932;25.904;2023-05-12T09:14:44;101037.00;;;18.28;52.52
8705;BME280;4389;41.932;25.904;2023-05-12T09:17:12;101056.25;;;18.39;51.82
8705;BME280;4389;41.932;25.904;2023-05-12T09:19:39;101037.00;;;18.36;52.14
8705;BME280;4389;41.932;25.904;2023-05-12T09:22:06;101041.16;;;18.46;51.13
8705;BME280;4389;41.932;25.904;2023-05-12T09:24:40;101044.25;;;18.19;53.05
8705;BME280;4389;41.932;25.904;2023-05-12T09:27:08;101040.69;;;18.27;53.48
8705;BME280;4389;41.932;25.904;2023-05-12T09:29:35;101045.59;;;18.15;54.02
8705;BME280;4389;41.932;25.904;2023-05-12T09:32:03;101043.75;;;18.16;53.03
8705;BME280;4389;41.932;25.904;2023-05-12T09:34:31;101041.75;;;18.02;53.96
8705;BME280;4389;41.932;25.904;2023-05-12T09:37:02;101040.06;;;18.17;51.23
8705;BME280;4389;41.932;25.904;2023-05-12T09:39:30;101039.69;;;18.36;52.32
8705;BME280;4389;41.932;25.904;2023-05-12T09:41:58;101042.41;;;18.12;52.05
8705;BME280;4389;41.932;25.904;2023-05-12T09:44:26;101038.41;;;18.16;51.97
8705;BME280;4389;41.932;25.904;2023-05-12T09:46:53;101034.00;;;18.15;52.71
8705;BME280;4389;41.932;25.904;2023-05-12T09:49:21;101037.28;;;18.57;52.17
8705;BME280;4389;41.932;25.904;2023-05-12T09:51:51;101040.91;;;18.72;51.37
8705;BME280;4389;41.932;25.904;2023-05-12T09:54:23;101052.53;;;18.94;49.94
8705;BME280;4389;41.932;25.904;2023-05-12T09:56:51;101037.84;;;18.83;49.85
8705;BME280;4389;41.932;25.904;2023-05-12T09:59:21;101034.28;;;18.90;49.28
8705;BME280;4389;41.932;25.904;2023-05-12T10:01:52;101035.69;;;19.08;50.47
8705;BME280;4389;41.932;25.904;2023-05-12T10:04:20;101033.03;;;19.31;46.53
8705;BME280;4389;41.932;25.904;2023-05-12T10:06:48;101033.00;;;19.39;45.83
8705;BME280;4389;41.932;25.904;2023-05-12T10:09:18;101035.50;;;19.40;45.29
8705;BME280;4389;41.932;25.904;2023-05-12T10:11:48;101025.66;;;19.55;45.40
8705;BME280;4389;41.932;25.904;2023-05-12T10:14:16;101025.00;;;19.53;45.53
8705;BME280;4389;41.932;25.904;2023-05-12T10:16:45;101023.50;;;19.73;46.10
8705;BME280;4389;41.932;25.904;2023-05-12T10:19:12;101026.59;;;19.62;44.61
8705;BME280;4389;41.932;25.904;2023-05-12T10:21:42;101013.66;;;19.66;45.91
8705;BME280;4389;41.932;25.904;2023-05-12T10:24:09;101018.06;;;19.81;44.94
8705;BME280;4389;41.932;25.904;2023-05-12T10:26:36;101017.84;;;20.05;43.96
8705;BME280;4389;41.932;25.904;2023-05-12T10:29:04;101015.84;;;20.36;42.66
8705;BME280;4389;41.932;25.904;2023-05-12T10:31:32;101013.41;;;20.12;44.44
8705;BME280;4389;41.932;25.904;2023-05-12T10:34:02;101006.66;;;20.16;45.90
8705;BME280;4389;41.932;25.904;2023-05-12T10:36:29;101003.94;;;19.65;47.18
8705;BME280;4389;41.932;25.904;2023-05-12T10:39:03;101011.03;;;19.35;47.12
8705;BME280;4389;41.932;25.904;2023-05-12T10:41:32;101015.81;;;19.25;47.42
8705;BME280;4389;41.932;25.904;2023-05-12T10:43:59;101003.59;;;19.23;46.41
8705;BME280;4389;41.932;25.904;2023-05-12T10:46:26;100998.88;;;19.47;44.89
8705;BME280;4389;41.932;25.904;2023-05-12T10:48:56;101009.78;;;19.68;45.99
8705;BME280;4389;41.932;25.904;2023-05-12T10:51:26;100995.38;;;19.98;45.83
8705;BME280;4389;41.932;25.904;2023-05-12T10:53:56;101001.91;;;20.18;43.93
8705;BME280;4389;41.932;25.904;2023-05-12T10:56:27;100995.28;;;19.92;43.88
8705;BME280;4389;41.932;25.904;2023-05-12T10:59:21;100997.66;;;19.87;44.17
8705;BME280;4389;41.932;25.904;2023-05-12T11:01:56;100991.09;;;19.89;45.85
8705;BME280;4389;41.932;25.904;2023-05-12T11:04:35;101002.00;;;19.73;45.05
8705;BME280;4389;41.932;25.904;2023-05-12T11:07:07;100996.63;;;19.73;44.52
8705;BME280;4389;41.932;25.904;2023-05-12T11:09:35;100984.69;;;19.76;44.40
8705;BME280;4389;41.932;25.904;2023-05-12T11:12:05;100993.47;;;20.07;44.27
8705;BME280;4389;41.932;25.904;2023-05-12T11:14:32;100979.59;;;20.18;43.20
8705;BME280;4389;41.932;25.904;2023-05-12T11:16:59;100987.50;;;20.69;41.90
8705;BME280;4389;41.932;25.904;2023-05-12T11:19:26;100982.09;;;20.84;41.41
8705;BME280;4389;41.932;25.904;2023-05-12T11:21:53;100982.84;;;20.92;41.81
8705;BME280;4389;41.932;25.904;2023-05-12T11:24:22;100970.66;;;20.96;41.65
8705;BME280;4389;41.932;25.904;2023-05-12T11:26:49;100974.16;;;21.11;40.75
8705;BME280;4389;41.932;25.904;2023-05-12T11:29:17;100970.50;;;20.83;41.62
8705;BME280;4389;41.932;25.904;2023-05-12T11:31:46;100978.69;;;20.75;41.17
8705;BME280;4389;41.932;25.904;2023-05-12T11:34:14;100979.06;;;20.87;41.65
8705;BME280;4389;41.932;25.904;2023-05-12T11:36:42;100969.22;;;20.79;41.80
8705;BME280;4389;41.932;25.904;2023-05-12T11:39:14;100980.03;;;20.50;41.36
8705;BME280;4389;41.932;25.904;2023-05-12T11:41:42;100968.81;;;20.82;42.10
8705;BME280;4389;41.932;25.904;2023-05-12T11:44:14;100970.13;;;20.86;41.46
8705;BME280;4389;41.932;25.904;2023-05-12T11:46:51;100956.59;;;20.94;40.20
8705;BME280;4389;41.932;25.904;2023-05-12T11:49:18;100952.88;;;20.95;40.44
8705;BME280;4389;41.932;25.904;2023-05-12T11:51:45;100958.63;;;21.13;40.16
8705;BME280;4389;41.932;25.904;2023-05-12T11:54:13;100952.75;;;21.24;41.81
8705;BME280;4389;41.932;25.904;2023-05-12T11:56:48;100956.31;;;21.10;42.53
8705;BME280;4389;41.932;25.904;2023-05-12T11:59:26;100964.88;;;20.64;41.42
8705;BME280;4389;41.932;25.904;2023-05-12T12:01:53;100958.38;;;20.08;42.71
8705;BME280;4389;41.932;25.904;2023-05-12T12:04:30;100960.53;;;19.90;44.58
8705;BME280;4389;41.932;25.904;2023-05-12T12:06:57;100951.78;;;19.59;44.00
8705;BME280;4389;41.932;25.904;2023-05-12T12:09:29;100957.72;;;19.69;43.67
8705;BME280;4389;41.932;25.904;2023-05-12T12:11:58;100942.91;;;19.73;44.61
8705;BME280;4389;41.932;25.904;2023-05-12T12:14:25;100947.97;;;20.05;43.36
8705;BME280;4389;41.932;25.904;2023-05-12T12:16:52;100952.31;;;20.21;41.69
8705;BME280;4389;41.932;25.904;2023-05-12T12:19:19;100949.69;;;19.98;42.46
8705;BME280;4389;41.932;25.904;2023-05-12T12:21:45;100955.78;;;19.92;42.41
8705;BME280;4389;41.932;25.904;2023-05-12T12:24:12;100950.16;;;19.87;42.90
8705;BME280;4389;41.932;25.904;2023-05-12T12:26:39;100954.88;;;20.00;41.81
8705;BME280;4389;41.932;25.904;2023-05-12T12:29:07;100956.25;;;19.96;41.84
8705;BME280;4389;41.932;25.904;2023-05-12T12:31:34;100951.44;;;19.91;42.08
8705;BME280;4389;41.932;25.904;2023-05-12T12:34:01;100942.47;;;19.99;43.56
8705;BME280;4389;41.932;25.904;2023-05-12T12:36:28;100949.50;;;20.00;43.25
8705;BME280;4389;41.932;25.904;2023-05-12T12:38:56;100933.56;;;19.98;43.34
8705;BME280;4389;41.932;25.904;2023-05-12T12:41:23;100940.38;;;20.09;42.71
8705;BME280;4389;41.932;25.904;2023-05-12T12:43:50;100940.75;;;20.06;44.64
8705;BME280;4389;41.932;25.904;2023-05-12T12:46:19;100947.13;;;20.34;43.18
8705;BME280;4389;41.932;25.904;2023-05-12T12:48:45;100943.25;;;20.36;42.30
8705;BME280;4389;41.932;25.904;2023-05-12T12:51:12;100955.03;;;20.35;41.26
8705;BME280;4389;41.932;25.904;2023-05-12T12:53:39;100940.19;;;20.10;41.47
8705;BME280;4389;41.932;25.904;2023-05-12T12:56:07;100935.22;;;19.99;43.48
8705;BME280;4389;41.932;25.904;2023-05-12T12:58:34;100939.91;;;20.05;43.21
8705;BME280;4389;41.932;25.904;2023-05-12T13:01:01;100937.66;;;20.38;41.39
8705;BME280;4389;41.932;25.904;2023-05-12T13:03:29;100941.84;;;20.11;41.90
8705;BME280;4389;41.932;25.904;2023-05-12T13:05:56;100931.34;;;20.02;42.09